Time;durP1;ratioP1;P1;durP2;ratioP2;P2;SDS_P1;SDS_P2;PMS_P1;PMS_P2;Temp;Humidity;BMP_temperature;BMP_pressure;BME280_temperature;BME280_humidity;BME280_pressure;Samples;Min_cycle;Max_cycle;Signal;HPM_P1;HPM_P2
2022/08/15 00:01:22;;;;;;;5.75;2.67;;;23.20;70.90;;;;;;5107959;28;20067;-73
2022/08/15 00:03:50;;;;;;;;;;;23.20;71.20;;;;;;5105510;28;20024;-72
2022/08/15 00:06:21;;;;;;;2.90;2.70;;;;;;;;;;5110215;28;19907;-70
2022/08/15 00:08:52;;;;;;;3.40;2.90;;;;;;;;;;5110275;28;20027;-70
2022/08/15 00:11:27;;;;;;;4.07;3.05;;;23.00;71.70;;;;;;5093604;28;20034;-69
2022/08/15 00:13:56;;;;;;;7.53;3.25;;;23.00;72.60;;;;;;5112098;28;20028;-70
2022/08/15 00:16:21;;;;;;;3.88;3.58;;;22.90;73.10;;;;;;5111562;28;20051;-69
2022/08/15 00:18:48;;;;;;;2.92;2.70;;;22.80;73.40;;;;;;5103520;28;20065;-70
2022/08/15 00:21:17;;;;;;;3.42;3.10;;;22.80;73.70;;;;;;5111525;28;20043;-70
2022/08/15 00:23:43;;;;;;;2.60;2.40;;;22.70;74.10;;;;;;5111080;28;20065;-71
2022/08/15 00:26:10;;;;;;;3.78;2.75;;;22.70;74.60;;;;;;5111652;28;20031;-70
2022/08/15 00:28:36;;;;;;;3.97;3.58;;;22.60;74.90;;;;;;5110706;28;20481;-70
2022/08/15 00:31:05;;;;;;;3.75;3.22;;;22.60;76.10;;;;;;5111880;28;20472;-70
2022/08/15 00:33:31;;;;;;;4.63;2.97;;;22.50;75.90;;;;;;5106625;28;20050;-71
2022/08/15 00:35:58;;;;;;;4.00;3.20;;;22.50;76.00;;;;;;5090828;28;20107;-70
2022/08/15 00:38:27;;;;;;;3.45;3.15;;;22.40;76.20;;;;;;5091039;28;20110;-72
2022/08/15 00:43:45;;;;;;;3.72;3.42;;;22.30;76.40;;;;;;5090502;28;20055;-71
2022/08/15 00:46:13;;;;;;;3.42;3.13;;;22.30;77.10;;;;;;5091259;28;20032;-71
2022/08/15 00:48:43;;;;;;;4.15;3.35;;;22.20;77.60;;;;;;5090445;28;20039;-71
2022/08/15 00:51:38;;;;;;;6.13;3.60;;;22.20;78.30;;;;;;5092399;28;20024;-71
2022/08/15 00:54:36;;;;;;;3.10;2.90;;;22.20;79.30;;;;;;5091685;28;20540;-70
2022/08/15 00:57:06;;;;;;;4.32;3.15;;;22.20;79.80;;;;;;5082403;28;20074;-71
2022/08/15 00:59:37;;;;;;;4.32;3.58;;;22.10;80.40;;;;;;5107892;28;20049;-71
2022/08/15 01:02:07;;;;;;;4.32;3.40;;;22.10;81.00;;;;;;5115551;28;20038;-71
2022/08/15 01:04:34;;;;;;;3.60;3.35;;;22.00;80.30;;;;;;5114080;28;20427;-71
2022/08/15 01:07:00;;;;;;;4.18;3.78;;;22.00;80.60;;;;;;5113357;28;20032;-71
2022/08/15 01:09:28;;;;;;;4.47;3.47;;;22.00;81.90;;;;;;5113461;28;20023;-74
2022/08/15 01:11:59;;;;;;;3.85;3.35;;;21.90;82.90;;;;;;5115415;28;20024;-71
2022/08/15 01:14:25;;;;;;;3.40;3.10;;;21.90;83.70;;;;;;5115135;28;20102;-72
2022/08/15 01:16:51;;;;;;;4.90;3.72;;;21.90;84.60;;;;;;5093130;28;20123;-70
2022/08/15 01:19:22;;;;;;;4.00;2.92;;;21.90;84.90;;;;;;5094644;28;20020;-71
2022/08/15 01:22:00;;;;;;;4.63;3.53;;;21.80;85.30;;;;;;5094906;28;20579;-70
2022/08/15 01:24:59;;;;;;;3.45;3.15;;;21.80;86.10;;;;;;5114756;28;20027;-73
2022/08/15 01:27:31;;;;;;;5.85;3.45;;;21.80;86.60;;;;;;5094632;28;20525;-70
2022/08/15 01:29:58;;;;;;;5.43;3.67;;;21.70;86.80;;;;;;5094700;28;20024;-71
2022/08/15 01:32:24;;;;;;;7.38;3.85;;;21.70;87.00;;;;;;5094525;28;20484;-71
2022/08/15 01:34:50;;;;;;;4.95;3.47;;;21.70;87.20;;;;;;5093652;28;20039;-71
2022/08/15 01:37:16;;;;;;;5.90;4.32;;;21.60;87.40;;;;;;5094440;28;20032;-72
2022/08/15 01:40:15;;;;;;;4.68;3.20;;;21.60;87.70;;;;;;5096862;28;20055;-72
2022/08/15 01:42:47;;;;;;;3.67;3.38;;;21.70;88.00;;;;;;5088581;28;20040;-71
2022/08/15 01:45:18;;;;;;;4.00;3.08;;;21.60;88.30;;;;;;5094452;28;20085;-71
2022/08/15 01:47:54;;;;;;;4.57;3.50;;;21.70;88.90;;;;;;5093823;28;20028;-71
2022/08/15 01:50:25;;;;;;;4.55;3.80;;;21.60;89.30;;;;;;5093635;28;20452;-72
2022/08/15 01:53:13;;;;;;;4.28;3.85;;;21.60;89.90;;;;;;5107071;28;20054;-72
2022/08/15 01:55:57;;;;;;;5.75;3.83;;;21.70;90.10;;;;;;5113855;28;20024;-71
2022/08/15 01:58:24;;;;;;;6.63;4.10;;;21.70;90.40;;;;;;5107642;28;20130;-71
2022/08/15 02:01:06;;;;;;;6.80;3.47;;;21.80;91.00;;;;;;5113561;28;20045;-71
2022/08/15 02:03:35;;;;;;;6.47;3.35;;;21.80;91.30;;;;;;5113184;28;20024;-74
2022/08/15 02:06:04;;;;;;;4.38;3.38;;;21.80;92.00;;;;;;5113199;28;20012;-70
2022/08/15 02:08:30;;;;;;;8.30;3.40;;;21.80;92.40;;;;;;5094667;28;20055;-72
2022/08/15 02:10:56;;;;;;;6.05;3.30;;;21.90;92.80;;;;;;5093831;28;20453;-72
2022/08/15 02:13:23;;;;;;;4.13;3.10;;;21.90;93.20;;;;;;5107245;28;20024;-71
2022/08/15 02:15:50;;;;;;;6.07;3.22;;;21.90;93.60;;;;;;5105314;28;20112;-71
2022/08/15 02:18:16;;;;;;;5.28;3.38;;;21.90;93.80;;;;;;5114082;28;20078;-71
2022/08/15 02:20:42;;;;;;;5.45;3.50;;;21.90;94.10;;;;;;5111249;28;20074;-71
2022/08/15 02:23:08;;;;;;;3.90;3.20;;;21.90;94.40;;;;;;5113929;28;20085;-71
2022/08/15 02:25:35;;;;;;;7.10;3.75;;;21.90;94.60;;;;;;5112976;28;20027;-71
2022/08/15 02:28:01;;;;;;;3.90;3.50;;;21.80;95.00;;;;;;5112932;28;20081;-71
2022/08/15 02:30:29;;;;;;;5.25;3.47;;;21.80;95.20;;;;;;5113646;28;20028;-73
2022/08/15 02:32:56;;;;;;;4.60;3.38;;;21.80;95.40;;;;;;5093997;28;20035;-71
2022/08/15 02:35:22;;;;;;;7.57;3.75;;;21.70;95.60;;;;;;5113863;28;20024;-70
2022/08/15 02:37:48;;;;;;;4.80;3.75;;;21.80;96.10;;;;;;5111702;28;20730;-71
2022/08/15 02:40:15;;;;;;;6.38;3.05;;;21.70;96.00;;;;;;5113386;28;20027;-71
2022/08/15 02:42:42;;;;;;;7.22;3.70;;;21.70;96.20;;;;;;5112671;28;20028;-71
2022/08/15 02:45:12;;;;;;;4.85;3.38;;;21.60;96.50;;;;;;5112273;28;20024;-71
2022/08/15 02:47:43;;;;;;;7.00;3.30;;;21.70;96.50;;;;;;5111635;28;20035;-71
2022/08/15 02:50:11;;;;;;;9.80;3.38;;;21.60;96.70;;;;;;5093225;28;20020;-71
2022/08/15 02:52:41;;;;;;;6.55;3.25;;;21.70;97.00;;;;;;5092096;28;20039;-71
2022/08/15 02:55:10;;;;;;;3.72;3.28;;;21.70;97.00;;;;;;5081270;28;20032;-71
2022/08/15 02:57:35;;;;;;;7.00;3.50;;;21.60;97.20;;;;;;5112298;28;20058;-71
2022/08/15 03:00:03;;;;;;;4.97;3.50;;;21.60;97.20;;;;;;5113575;28;20461;-71
2022/08/15 03:02:28;;;;;;;3.50;2.88;;;21.60;97.40;;;;;;5111905;28;20023;-73
2022/08/15 03:04:54;;;;;;;4.75;3.20;;;21.60;97.50;;;;;;5095416;28;20124;-71
2022/08/15 03:07:20;;;;;;;5.20;3.05;;;21.50;97.80;;;;;;5109537;28;20028;-71
2022/08/15 03:09:46;;;;;;;3.47;3.00;;;21.60;98.00;;;;;;5093333;28;20027;-71
2022/08/15 03:12:13;;;;;;;5.93;3.78;;;21.50;98.10;;;;;;5109294;28;20023;-72
2022/08/15 03:14:40;;;;;;;4.47;3.45;;;21.50;98.50;;;;;;5091706;28;20028;-72
2022/08/15 03:17:10;;;;;;;5.95;3.17;;;21.50;98.50;;;;;;5069208;28;20052;-71
2022/08/15 03:19:37;;;;;;;4.57;3.40;;;21.50;98.50;;;;;;5051923;28;20453;-72
2022/08/15 03:22:03;;;;;;;4.53;2.80;;;21.50;98.70;;;;;;5070689;28;20107;-72
2022/08/15 03:24:30;;;;;;;4.68;3.63;;;21.50;98.80;;;;;;5062166;28;20023;-72
2022/08/15 03:26:55;;;;;;;9.00;3.30;;;21.50;98.90;;;;;;5080995;28;20477;-72
2022/08/15 03:29:23;;;;;;;3.58;3.00;;;21.50;98.80;;;;;;5078291;28;20138;-72
2022/08/15 03:31:51;;;;;;;3.72;2.60;;;21.50;98.70;;;;;;5080664;28;20020;-72
2022/08/15 03:34:19;;;;;;;4.03;2.92;;;21.40;98.80;;;;;;5076310;28;20028;-72
2022/08/15 03:36:46;;;;;;;4.28;3.25;;;21.40;98.90;;;;;;5079645;28;20046;-71
2022/08/15 03:39:15;;;;;;;4.00;2.53;;;21.50;98.90;;;;;;5078492;28;20066;-72
2022/08/15 03:41:42;;;;;;;5.18;3.00;;;21.50;99.00;;;;;;5079365;28;20093;-71
2022/08/15 03:44:09;;;;;;;3.10;2.63;;;21.40;99.20;;;;;;5076436;28;20119;-72
2022/08/15 03:46:34;;;;;;;4.03;3.30;;;21.40;99.60;;;;;;5050831;28;20025;-72
2022/08/15 03:49:00;;;;;;;6.18;3.42;;;21.40;99.90;;;;;;5051777;28;20462;-72
2022/08/15 03:51:28;;;;;;;7.45;3.08;;;21.30;99.90;;;;;;5051576;28;20462;-71
2022/08/15 03:53:58;;;;;;;5.40;3.40;;;21.30;99.90;;;;;;5055878;28;20742;-72
2022/08/15 03:56:27;;;;;;;3.80;3.25;;;21.20;99.90;;;;;;5069937;28;20449;-72
2022/08/15 03:58:54;;;;;;;6.53;3.10;;;21.10;99.90;;;;;;5070922;28;20020;-72
2022/08/15 04:01:23;;;;;;;4.93;3.03;;;21.10;99.90;;;;;;5045242;28;20060;-72
2022/08/15 04:03:50;;;;;;;5.72;3.00;;;21.10;99.90;;;;;;5070506;28;20485;-72
2022/08/15 04:06:20;;;;;;;3.67;3.10;;;21.00;99.90;;;;;;5071508;28;20436;-72
2022/08/15 04:08:48;;;;;;;4.15;2.90;;;21.00;99.90;;;;;;5070672;28;20036;-72
2022/08/15 04:11:15;;;;;;;3.28;2.88;;;20.90;99.90;;;;;;5071288;28;20028;-72
2022/08/15 04:13:42;;;;;;;3.50;2.97;;;20.90;99.90;;;;;;5057045;28;20462;-72
2022/08/15 04:16:08;;;;;;;3.60;3.00;;;20.90;99.90;;;;;;5059402;28;20044;-72
2022/08/15 04:18:35;;;;;;;3.50;2.90;;;20.90;99.90;;;;;;5091351;28;20031;-74
2022/08/15 04:21:04;;;;;;;3.45;2.65;;;20.80;99.90;;;;;;5091600;28;20020;-72
2022/08/15 04:23:30;;;;;;;3.75;3.08;;;20.80;99.90;;;;;;5091718;28;20028;-72
2022/08/15 04:25:55;;;;;;;4.43;2.78;;;20.80;99.90;;;;;;5071420;28;20032;-71
2022/08/15 04:28:23;;;;;;;3.05;2.40;;;20.80;99.90;;;;;;5071161;28;20453;-70
2022/08/15 04:30:49;;;;;;;4.25;2.58;;;20.80;99.90;;;;;;5069679;28;20028;-74
2022/08/15 04:33:22;;;;;;;2.92;2.50;;;20.70;99.90;;;;;;5091096;28;20043;-72
2022/08/15 04:35:54;;;;;;;4.72;2.42;;;20.80;99.90;;;;;;5090821;28;20525;-71
2022/08/15 04:38:20;;;;;;;6.60;2.70;;;20.80;99.90;;;;;;5091489;28;20473;-71
2022/08/15 04:40:47;;;;;;;3.80;2.38;;;20.80;99.90;;;;;;5090430;28;20028;-71
2022/08/15 04:43:14;;;;;;;5.40;2.95;;;20.80;99.90;;;;;;5091365;28;20035;-71
2022/08/15 04:45:42;;;;;;;6.10;2.60;;;20.80;99.90;;;;;;5090076;28;20028;-73
2022/08/15 04:48:09;;;;;;;6.07;2.65;;;20.80;99.90;;;;;;5089427;28;20035;-71
2022/08/15 04:50:38;;;;;;;5.72;2.53;;;20.80;99.90;;;;;;5090920;28;20074;-74
2022/08/15 04:53:05;;;;;;;4.82;2.83;;;20.80;99.90;;;;;;5091428;28;20024;-71
2022/08/15 04:55:31;;;;;;;4.43;2.90;;;20.80;99.90;;;;;;5090876;28;20487;-71
2022/08/15 04:57:58;;;;;;;6.43;3.05;;;20.70;99.90;;;;;;5072083;28;20032;-71
2022/08/15 05:00:28;;;;;;;4.53;2.90;;;20.70;99.90;;;;;;5091442;28;20021;-71
2022/08/15 05:03:05;;;;;;;5.10;3.03;;;20.80;99.90;;;;;;5087789;28;20028;-71
2022/08/15 05:05:35;;;;;;;4.97;2.78;;;20.70;99.90;;;;;;5090287;28;20031;-71
2022/08/15 05:08:01;;;;;;;4.27;2.90;;;20.70;99.90;;;;;;5090832;28;20059;-71
2022/08/15 05:10:28;;;;;;;4.40;2.80;;;20.60;99.90;;;;;;5091077;28;20123;-70
2022/08/15 05:12:53;;;;;;;5.40;2.53;;;20.50;99.90;;;;;;5090340;28;20401;-85
2022/08/15 05:15:21;;;;;;;4.68;2.55;;;20.50;99.90;;;;;;5092337;28;20457;-88
2022/08/15 05:17:48;;;;;;;7.70;3.72;;;20.50;99.90;;;;;;5090056;28;20079;-72
2022/08/15 05:20:18;;;;;;;6.80;2.78;;;20.50;99.90;;;;;;5088646;28;20025;-75
2022/08/15 05:22:56;;;;;;;;;;;20.60;99.90;;;;;;5092384;28;20029;-88
2022/08/15 05:25:22;;;;;;;5.43;2.83;;;20.60;99.90;;;;;;5093193;28;19904;-91
2022/08/15 05:27:48;;;;;;;3.17;2.38;;;20.60;99.90;;;;;;5087425;28;20438;-74
2022/08/15 05:30:15;;;;;;;16.83;3.15;;;20.50;99.90;;;;;;5070699;28;20403;-71
2022/08/15 05:32:40;;;;;;;18.98;4.25;;;20.60;99.90;;;;;;5070136;28;20447;-79
2022/08/15 05:35:07;;;;;;;16.08;3.92;;;20.60;99.90;;;;;;5079830;28;20020;-78
2022/08/15 05:37:33;;;;;;;10.07;3.10;;;20.60;99.90;;;;;;5085774;28;20047;-78
2022/08/15 05:39:59;;;;;;;8.90;2.35;;;20.60;99.90;;;;;;5090604;28;20024;-77
2022/08/15 05:42:50;;;;;;;18.25;4.15;;;20.80;99.90;;;;;;5094780;28;20063;-79
2022/08/15 05:45:39;;;;;;;12.32;3.50;;;20.70;99.90;;;;;;5095320;28;20027;-76
2022/08/15 05:48:15;;;;;;;10.13;3.28;;;20.60;99.90;;;;;;5095300;28;20110;-77
2022/08/15 05:51:13;;;;;;;6.95;2.67;;;20.60;99.90;;;;;;5092818;28;20479;-80
2022/08/15 05:53:39;;;;;;;14.35;3.60;;;20.60;99.90;;;;;;5064039;28;20122;-80
2022/08/15 05:56:57;;;;;;;8.18;3.13;;;20.60;99.90;;;;;;5074402;28;20456;-77
2022/08/15 05:59:30;;;;;;;7.53;2.63;;;20.60;99.90;;;;;;5036715;28;20101;-77
2022/08/15 06:02:07;;;;;;;3.55;2.28;;;20.60;99.90;;;;;;5075279;28;20028;-78
2022/08/15 06:04:38;;;;;;;5.75;2.00;;;20.60;99.90;;;;;;5112304;28;20038;-77
2022/08/15 06:07:09;;;;;;;14.20;3.05;;;20.50;99.90;;;;;;5078325;28;20396;-76
2022/08/15 06:10:06;;;;;;;5.57;2.50;;;20.50;99.90;;;;;;5073560;28;20037;-76
2022/08/15 06:12:46;;;;;;;15.40;3.40;;;20.50;99.90;;;;;;5065656;28;20478;-76
2022/08/15 06:15:11;;;;;;;;;;;20.60;99.90;;;;;;5073735;28;20063;-79
2022/08/15 06:17:48;;;;;;;15.25;3.08;;;20.50;99.90;;;;;;5073363;28;19991;-82
2022/08/15 06:20:19;;;;;;;4.65;2.50;;;20.50;99.90;;;;;;5074087;28;20462;-83
2022/08/15 06:22:54;;;;;;;11.88;3.42;;;20.50;99.90;;;;;;5072297;28;20036;-73
2022/08/15 06:25:41;;;;;;;14.43;4.68;;;20.60;99.90;;;;;;5072351;28;20036;-73
2022/08/15 06:28:52;;;;;;;4.18;2.50;;;20.60;99.90;;;;;;5077600;28;20054;-73
2022/08/15 06:31:38;;;;;;;13.65;3.33;;;20.60;99.90;;;;;;5050943;28;20111;-73
2022/08/15 06:34:30;;;;;;;8.82;2.90;;;20.50;99.90;;;;;;5081321;28;20099;-73
2022/08/15 06:37:12;;;;;;;5.97;2.78;;;20.40;99.90;;;;;;5087806;28;20039;-73
2022/08/15 06:39:47;;;;;;;3.78;2.40;;;20.40;99.90;;;;;;5096535;28;20032;-73
2022/08/15 06:42:21;;;;;;;5.78;2.50;;;20.40;99.90;;;;;;5091296;28;20102;-73
2022/08/15 06:44:50;;;;;;;5.88;2.30;;;20.40;99.90;;;;;;5080569;28;20038;-73
2022/08/15 06:47:18;;;;;;;5.53;2.47;;;20.50;99.90;;;;;;5097737;28;20032;-72
2022/08/15 06:49:49;;;;;;;4.53;2.88;;;20.50;99.90;;;;;;5091308;28;20050;-71
2022/08/15 06:52:17;;;;;;;4.38;2.47;;;20.50;99.90;;;;;;5093023;28;20714;-72
2022/08/15 06:54:43;;;;;;;3.00;2.20;;;20.60;99.90;;;;;;5088292;28;20020;-72
2022/08/15 06:57:32;;;;;;;5.45;2.80;;;20.60;99.90;;;;;;5088718;28;20032;-72
2022/08/15 07:00:07;;;;;;;4.07;2.10;;;20.70;99.90;;;;;;5090840;28;20144;-72
2022/08/15 07:02:39;;;;;;;3.78;2.47;;;20.90;99.90;;;;;;5092839;28;20056;-72
2022/08/15 07:05:16;;;;;;;3.28;2.08;;;21.10;99.90;;;;;;5087915;28;20059;-72
2022/08/15 07:08:05;;;;;;;3.03;1.95;;;21.20;99.90;;;;;;5086213;28;20065;-72
2022/08/15 07:10:50;;;;;;;2.10;1.95;;;21.30;99.90;;;;;;5092167;28;20085;-72
2022/08/15 07:13:49;;;;;;;4.20;2.60;;;21.40;99.90;;;;;;5088138;28;20111;-72
2022/08/15 07:16:54;;;;;;;3.13;2.20;;;21.50;99.90;;;;;;5090736;28;20410;-73
2022/08/15 07:19:20;;;;;;;3.13;2.00;;;21.60;99.90;;;;;;5008572;28;20430;-72
2022/08/15 07:21:45;;;;;;;5.43;2.40;;;21.80;99.90;;;;;;5080886;28;20039;-72
2022/08/15 07:24:21;;;;;;;3.13;2.25;;;21.90;99.90;;;;;;5091394;28;20056;-72
2022/08/15 07:26:54;;;;;;;6.57;2.58;;;22.20;99.90;;;;;;5090801;28;20031;-72
2022/08/15 07:29:37;;;;;;;2.55;2.08;;;22.40;99.10;;;;;;5091308;28;20028;-72
2022/08/15 07:32:11;;;;;;;2.53;2.08;;;22.60;98.50;;;;;;5086626;28;20051;-72
2022/08/15 07:34:51;;;;;;;2.47;1.92;;;22.60;98.30;;;;;;5082406;28;20024;-72
2022/08/15 07:37:20;;;;;;;6.25;2.60;;;22.80;97.80;;;;;;5091414;28;20024;-72
2022/08/15 07:39:56;;;;;;;3.10;2.08;;;22.90;97.60;;;;;;5090456;28;20164;-72
2022/08/15 07:42:22;;;;;;;4.15;2.30;;;23.10;97.40;;;;;;5080340;28;20054;-72
2022/08/15 07:44:55;;;;;;;3.80;2.13;;;23.30;96.60;;;;;;5090316;28;20036;-72
2022/08/15 07:47:32;;;;;;;3.10;1.73;;;23.50;96.10;;;;;;5088564;28;20042;-72
2022/08/15 07:50:07;;;;;;;3.65;1.88;;;23.50;95.60;;;;;;5089372;28;20127;-72
2022/08/15 07:52:33;;;;;;;3.80;1.92;;;23.60;95.40;;;;;;5091235;28;20028;-72
2022/08/15 07:55:17;;;;;;;5.95;1.83;;;23.70;95.20;;;;;;5089726;28;20036;-72
2022/08/15 07:58:02;;;;;;;1.70;1.55;;;23.80;94.90;;;;;;5082193;28;20458;-74
2022/08/15 08:00:31;;;;;;;2.80;1.88;;;23.90;94.60;;;;;;5089102;28;20089;-72
2022/08/15 08:03:18;;;;;;;4.90;1.83;;;23.80;94.60;;;;;;5089074;28;20035;-72
2022/08/15 08:05:49;;;;;;;4.88;1.80;;;23.80;94.60;;;;;;5079434;28;20017;-72
2022/08/15 08:08:16;;;;;;;2.08;1.83;;;23.80;94.60;;;;;;5090367;28;20073;-73
2022/08/15 08:11:01;;;;;;;2.88;1.77;;;23.80;94.50;;;;;;5090069;28;20032;-74
2022/08/15 08:14:01;;;;;;;1.63;1.52;;;23.80;94.40;;;;;;5085788;28;20028;-72
2022/08/15 08:16:44;;;;;;;2.55;1.60;;;23.90;94.20;;;;;;5071737;28;20052;-72
2022/08/15 08:19:33;;;;;;;4.68;1.70;;;23.90;94.30;;;;;;5110461;28;20032;-72
2022/08/15 08:22:18;;;;;;;1.65;1.55;;;23.90;94.10;;;;;;5100254;28;20353;-72
2022/08/15 08:25:16;;;;;;;2.90;1.77;;;23.80;93.70;;;;;;5102640;28;20427;-74
2022/08/15 08:28:12;;;;;;;3.83;2.05;;;23.70;93.90;;;;;;5108352;28;20404;-74
2022/08/15 08:31:02;;;;;;;2.92;1.42;;;23.60;93.90;;;;;;5107910;28;20460;-74
2022/08/15 08:33:31;;;;;;;5.60;2.30;;;23.80;93.90;;;;;;5109349;28;20032;-73
2022/08/15 08:36:21;;;;;;;1.75;1.50;;;24.10;93.60;;;;;;5106949;28;20024;-72
2022/08/15 08:38:57;;;;;;;;;;;24.40;92.90;;;;;;5110338;28;20081;-73
2022/08/15 08:41:36;;;;;;;2.63;1.55;;;24.50;92.20;;;;;;5106917;28;19925;-72
2022/08/15 08:44:53;;;;;;;3.22;1.63;;;24.60;91.70;;;;;;5109926;28;20468;-72
2022/08/15 08:47:39;;;;;;;2.03;1.70;;;24.80;91.70;;;;;;5056103;28;20439;-72
2022/08/15 08:50:31;;;;;;;1.45;1.30;;;24.80;91.00;;;;;;5110098;28;20027;-73
2022/08/15 08:53:30;;;;;;;3.67;1.63;;;24.80;90.90;;;;;;5073041;28;20040;-72
2022/08/15 08:56:03;;;;;;;2.25;1.40;;;24.90;90.60;;;;;;5109649;28;20045;-72
2022/08/15 08:58:32;;;;;;;1.73;1.63;;;25.00;90.60;;;;;;5108088;28;20479;-72
2022/08/15 09:00:59;;;;;;;1.40;1.30;;;25.20;90.40;;;;;;5109438;28;20032;-72
2022/08/15 09:03:34;;;;;;;1.50;1.40;;;25.40;90.00;;;;;;5110335;28;20026;-72
2022/08/15 09:06:01;;;;;;;2.15;1.30;;;25.60;89.10;;;;;;5109823;28;20144;-72
2022/08/15 09:08:41;;;;;;;2.55;1.63;;;25.70;88.00;;;;;;5110551;28;20051;-72
2022/08/15 09:11:16;;;;;;;2.72;1.38;;;25.90;86.40;;;;;;5109979;28;20157;-72
2022/08/15 09:13:44;;;;;;;2.03;1.80;;;26.00;84.90;;;;;;5097430;28;20023;-73
2022/08/15 09:16:23;;;;;;;2.97;1.40;;;26.10;84.50;;;;;;5107868;28;20048;-72
2022/08/15 09:19:03;;;;;;;4.63;1.90;;;26.20;84.40;;;;;;5095554;28;20036;-72
2022/08/15 09:21:29;;;;;;;3.50;1.58;;;26.20;82.90;;;;;;5110804;28;20293;-73
2022/08/15 09:23:56;;;;;;;1.55;1.45;;;26.00;83.20;;;;;;5113284;28;20121;-72
2022/08/15 09:26:38;;;;;;;2.53;1.50;;;26.00;82.90;;;;;;5112777;28;20444;-71
2022/08/15 09:29:25;;;;;;;6.20;2.10;;;25.90;83.10;;;;;;5110859;28;20015;-71
2022/08/15 09:32:15;;;;;;;1.55;1.45;;;26.10;82.70;;;;;;5102203;28;20525;-72
2022/08/15 09:34:50;;;;;;;;;;;26.30;83.90;;;;;;5113721;28;20031;-75
2022/08/15 09:37:27;;;;;;;1.73;1.60;;;26.40;81.40;;;;;;5113356;28;20331;-73
2022/08/15 09:40:27;;;;;;;1.67;1.25;;;26.50;80.50;;;;;;5109625;28;20077;-73
2022/08/15 09:43:10;;;;;;;3.03;2.00;;;26.50;80.00;;;;;;5106207;28;20103;-73
2022/08/15 09:45:43;;;;;;;2.30;1.50;;;26.40;80.10;;;;;;5113373;28;20024;-73
2022/08/15 09:48:11;;;;;;;3.75;2.22;;;26.20;80.90;;;;;;5108138;27;20031;-73
2022/08/15 09:51:00;;;;;;;2.75;2.13;;;26.20;83.00;;;;;;5114598;27;20028;-81
2022/08/15 09:53:35;;;;;;;2.35;2.08;;;26.10;84.00;;;;;;5071100;28;20039;-73
2022/08/15 09:56:10;;;;;;;3.30;1.90;;;25.70;83.70;;;;;;5113251;28;20023;-78
2022/08/15 09:58:51;;;;;;;9.20;2.03;;;25.70;84.20;;;;;;5113753;28;20031;-77
2022/08/15 10:01:25;;;;;;;2.30;2.03;;;25.50;84.80;;;;;;5118642;28;20034;-79
2022/08/15 10:03:59;;;;;;;1.73;1.63;;;25.60;83.70;;;;;;5113139;28;20114;-79
2022/08/15 10:06:25;;;;;;;3.92;1.63;;;25.80;82.30;;;;;;5112032;28;20032;-77
2022/08/15 10:08:53;;;;;;;2.35;2.15;;;26.20;81.30;;;;;;5113346;28;20358;-76
2022/08/15 10:11:32;;;;;;;1.65;1.55;;;26.50;80.80;;;;;;5113227;28;20019;-76
2022/08/15 10:14:25;;;;;;;2.10;1.90;;;26.90;80.00;;;;;;5113419;28;20384;-75
2022/08/15 10:16:53;;;;;;;3.97;2.00;;;27.30;78.30;;;;;;5111907;28;20051;-76
2022/08/15 10:19:35;;;;;;;2.70;1.90;;;27.60;79.50;;;;;;5103260;28;20024;-76
2022/08/15 10:22:21;;;;;;;3.35;2.25;;;27.60;79.10;;;;;;5098553;28;20027;-77
2022/08/15 10:25:20;;;;;;;5.57;2.08;;;27.40;79.40;;;;;;5104758;28;20032;-77
2022/08/15 10:28:06;;;;;;;2.20;1.77;;;27.30;79.00;;;;;;5110596;28;20039;-78
2022/08/15 10:30:46;;;;;;;2.13;1.98;;;27.30;79.40;;;;;;5110782;28;20496;-78
2022/08/15 10:33:30;;;;;;;2.72;1.90;;;27.40;78.90;;;;;;5109203;28;20086;-78
2022/08/15 10:36:14;;;;;;;2.78;1.90;;;27.40;77.50;;;;;;5111451;28;20051;-76
2022/08/15 10:38:45;;;;;;;4.13;2.20;;;27.20;76.50;;;;;;5111358;28;20035;-76
2022/08/15 10:41:32;;;;;;;3.22;2.00;;;27.00;78.90;;;;;;5112833;28;20030;-76
2022/08/15 10:44:25;;;;;;;4.10;2.20;;;27.00;80.30;;;;;;5110540;28;20027;-76
2022/08/15 10:47:12;;;;;;;5.72;1.92;;;26.90;80.40;;;;;;5112009;28;20034;-75
2022/08/15 10:49:46;;;;;;;4.82;1.80;;;26.80;80.70;;;;;;5112408;28;20376;-77
2022/08/15 10:52:39;;;;;;;3.15;2.58;;;26.40;80.60;;;;;;5112782;28;20032;-76
2022/08/15 10:55:21;;;;;;;3.53;2.60;;;26.20;81.00;;;;;;5111840;28;20034;-79
2022/08/15 10:58:12;;;;;;;3.53;1.92;;;26.30;81.40;;;;;;5106040;28;20039;-80
2022/08/15 11:00:57;;;;;;;1.90;1.80;;;26.50;80.20;;;;;;5095784;28;20044;-80
2022/08/15 11:03:44;;;;;;;2.67;1.80;;;26.60;79.10;;;;;;5112033;27;20024;-79
2022/08/15 11:06:13;;;;;;;4.00;2.15;;;26.80;79.10;;;;;;5112798;28;20026;-79
2022/08/15 11:08:54;;;;;;;1.95;1.67;;;27.20;78.00;;;;;;5113581;28;20039;-79
2022/08/15 11:11:26;;;;;;;2.75;1.88;;;27.60;77.30;;;;;;5112635;28;20030;-79
2022/08/15 11:13:56;;;;;;;2.10;2.00;;;28.00;75.50;;;;;;5109157;28;20028;-79
2022/08/15 11:16:36;;;;;;;2.92;1.73;;;28.30;74.90;;;;;;5112455;28;20048;-79
2022/08/15 11:19:19;;;;;;;2.17;2.05;;;28.40;74.60;;;;;;5106411;28;20036;-78
2022/08/15 11:21:51;;;;;;;2.40;2.17;;;28.50;74.50;;;;;;5110370;28;20059;-79
2022/08/15 11:24:25;;;;;;;4.03;2.10;;;28.40;74.20;;;;;;5112085;28;20063;-78
2022/08/15 11:27:17;;;;;;;2.83;1.67;;;28.20;74.30;;;;;;5112161;28;20093;-79
2022/08/15 11:29:44;;;;;;;1.85;1.75;;;27.80;73.20;;;;;;5109347;28;20050;-78
2022/08/15 11:32:13;;;;;;;2.20;1.77;;;27.60;74.60;;;;;;5089628;28;20027;-79
2022/08/15 11:34:46;;;;;;;4.47;2.03;;;27.80;73.70;;;;;;5112768;28;20016;-81
2022/08/15 11:37:21;;;;;;;1.75;1.60;;;28.10;72.60;;;;;;5112598;28;20085;-79
2022/08/15 11:39:58;;;;;;;3.33;2.00;;;28.30;72.20;;;;;;5108019;28;20442;-81
2022/08/15 11:42:27;;;;;;;2.50;2.00;;;28.50;71.20;;;;;;5105810;28;20068;-80
2022/08/15 11:45:03;;;;;;;5.15;2.35;;;28.60;71.60;;;;;;5111685;28;20081;-81
2022/08/15 11:47:32;;;;;;;3.78;1.83;;;28.80;71.50;;;;;;5106936;28;20047;-81
2022/08/15 11:50:06;;;;;;;4.13;1.60;;;29.10;71.60;;;;;;5110343;27;20031;-80
2022/08/15 11:52:35;;;;;;;3.08;1.80;;;29.10;70.80;;;;;;5112042;27;20053;-83
2022/08/15 11:55:17;;;;;;;3.67;1.77;;;29.10;69.00;;;;;;5113831;27;20072;-82
2022/08/15 11:57:48;;;;;;;1.70;1.60;;;29.10;68.20;;;;;;5104189;28;20023;-80
2022/08/15 12:00:43;;;;;;;2.05;1.85;;;29.00;68.50;;;;;;5112131;27;20480;-82
2022/08/15 12:03:23;;;;;;;3.42;1.80;;;28.90;68.00;;;;;;5108727;28;20020;-79
2022/08/15 12:05:56;;;;;;;1.88;1.70;;;28.80;68.90;;;;;;5108930;27;20094;-79
2022/08/15 12:08:33;;;;;;;2.97;1.25;;;28.90;68.90;;;;;;5123626;27;20039;-75
2022/08/15 12:11:21;;;;;;;3.28;2.17;;;29.00;68.50;;;;;;5108696;28;20504;-75
2022/08/15 12:14:11;;;;;;;2.05;1.80;;;29.00;68.00;;;;;;5095132;28;20030;-82
2022/08/15 12:16:44;;;;;;;2.92;2.10;;;29.00;68.20;;;;;;5111004;28;20241;-73
2022/08/15 12:19:37;;;;;;;8.43;1.80;;;29.10;68.00;;;;;;5109383;28;20035;-75
2022/08/15 12:22:14;;;;;;;3.25;1.88;;;29.30;67.30;;;;;;5101214;28;20020;-73
2022/08/15 12:24:42;;;;;;;2.97;1.75;;;29.50;67.50;;;;;;5107219;28;20027;-74
2022/08/15 12:27:10;;;;;;;1.83;1.73;;;29.30;66.30;;;;;;5099676;28;20039;-73
2022/08/15 12:29:37;;;;;;;2.22;1.77;;;29.10;66.50;;;;;;5110477;28;20160;-77
2022/08/15 12:32:05;;;;;;;1.77;1.67;;;29.00;66.40;;;;;;5109589;28;20086;-73
2022/08/15 12:34:40;;;;;;;5.35;1.90;;;29.10;67.50;;;;;;5110616;28;20408;-76
2022/08/15 12:37:09;;;;;;;2.88;2.13;;;29.30;67.80;;;;;;5109411;28;20039;-74
2022/08/15 12:39:43;;;;;;;2.85;1.88;;;29.50;67.90;;;;;;5109772;28;20050;-75
2022/08/15 12:42:18;;;;;;;2.53;1.75;;;29.80;66.90;;;;;;5111585;28;20027;-74
2022/08/15 12:44:46;;;;;;;4.72;1.85;;;30.20;66.10;;;;;;5115297;28;20035;-79
2022/08/15 12:47:13;;;;;;;4.57;1.80;;;30.60;64.80;;;;;;5112105;28;20034;-74
2022/08/15 12:49:38;;;;;;;3.45;2.00;;;30.90;65.10;;;;;;5112269;28;20081;-76
2022/08/15 12:52:05;;;;;;;4.63;1.77;;;30.90;64.00;;;;;;5122144;28;20307;-75
2022/08/15 12:54:31;;;;;;;3.47;2.13;;;30.80;64.60;;;;;;5123290;28;20101;-76
2022/08/15 12:56:57;;;;;;;4.18;2.17;;;30.80;64.10;;;;;;5118862;28;20061;-76
2022/08/15 12:59:22;;;;;;;2.20;1.80;;;30.50;63.90;;;;;;5118602;28;20552;-78
2022/08/15 13:01:48;;;;;;;6.80;2.30;;;30.20;64.20;;;;;;5116537;28;20043;-77
2022/08/15 13:04:15;;;;;;;3.90;2.10;;;29.80;65.10;;;;;;5116927;28;20487;-76
2022/08/15 13:06:53;;;;;;;1.95;1.85;;;29.40;66.20;;;;;;5115238;28;20081;-76
2022/08/15 13:09:20;;;;;;;3.25;2.33;;;29.10;66.40;;;;;;5117124;28;20023;-79
2022/08/15 13:11:46;;;;;;;4.72;2.20;;;28.90;66.30;;;;;;5113358;28;20016;-78
2022/08/15 13:14:14;;;;;;;3.28;2.40;;;28.80;66.50;;;;;;5109839;28;20137;-79
2022/08/15 13:16:42;;;;;;;3.58;1.90;;;28.60;66.90;;;;;;5115515;28;20115;-84
2022/08/15 13:19:17;;;;;;;3.42;2.25;;;28.40;67.10;;;;;;5114823;28;20038;-76
2022/08/15 13:26:25;;;;;;;4.55;2.00;;;28.10;66.80;;;;;;5066469;27;1237786;-72
2022/08/15 13:28:55;;;;;;;2.40;2.20;;;28.50;66.80;;;;;;5089109;28;20032;-73
2022/08/15 13:31:21;;;;;;;4.05;2.25;;;28.90;66.40;;;;;;5097360;28;20068;-73